Time;durP1;ratioP1;P1;durP2;ratioP2;P2;SDS_P1;SDS_P2;PMS_P1;PMS_P2;Temp;Humidity;BMP_temperature;BMP_pressure;BME280_temperature;BME280_humidity;BME280_pressure;Samples;Min_cycle;Max_cycle;Signal;HPM_P1;HPM_P2
2022/05/13 00:02:12;;;;;;;7.20;2.95;;;11.70;99.90;;;;;;7397847;19;20010;-77
2022/05/13 00:04:42;;;;;;;7.88;2.80;;;11.80;99.90;;;;;;7401030;19;20015;-78
2022/05/13 00:07:11;;;;;;;6.97;3.13;;;11.50;99.90;;;;;;7397759;19;20090;-78
2022/05/13 00:12:21;;;;;;;5.72;3.42;;;11.90;99.90;;;;;;7401671;19;20505;-78
2022/05/13 00:14:51;;;;;;;8.40;3.50;;;11.90;99.90;;;;;;7401110;19;20372;-78
2022/05/13 00:17:23;;;;;;;11.98;3.83;;;12.10;99.90;;;;;;7401057;19;20010;-77
2022/05/13 00:19:52;;;;;;;8.90;3.50;;;11.90;99.90;;;;;;7399776;19;20038;-78
2022/05/13 00:22:22;;;;;;;6.10;3.65;;;12.10;99.90;;;;;;7400675;19;20045;-78
2022/05/13 00:24:51;;;;;;;10.18;3.70;;;12.00;99.90;;;;;;7403055;19;20030;-78
2022/05/13 00:27:21;;;;;;;8.02;3.45;;;12.00;99.90;;;;;;7396883;19;20391;-77
2022/05/13 00:29:50;;;;;;;5.22;3.00;;;12.00;99.90;;;;;;7398521;19;20074;-78
2022/05/13 00:32:22;;;;;;;8.23;3.58;;;12.00;99.90;;;;;;7399927;19;20010;-78
2022/05/13 00:34:51;;;;;;;8.00;3.40;;;12.20;99.90;;;;;;7400590;19;20028;-78
2022/05/13 00:37:20;;;;;;;6.03;3.45;;;12.00;99.90;;;;;;7400254;19;20015;-78
2022/05/13 00:39:49;;;;;;;8.80;3.05;;;13.10;99.90;;;;;;7402388;19;20011;-77
2022/05/13 00:42:19;;;;;;;7.25;3.20;;;;;;;;;;7399562;19;20011;-77
2022/05/13 00:44:48;;;;;;;6.63;3.33;;;11.90;99.90;;;;;;7399371;19;20070;-77
2022/05/13 00:47:18;;;;;;;9.35;3.13;;;11.90;99.90;;;;;;7395931;19;20537;-77
2022/05/13 00:49:50;;;;;;;7.10;3.30;;;11.90;99.90;;;;;;7398347;19;20477;-77
2022/05/13 00:52:19;;;;;;;8.02;3.10;;;11.90;99.90;;;;;;7398039;19;20002;-77
2022/05/13 00:54:49;;;;;;;6.70;3.00;;;12.10;99.90;;;;;;7397388;19;20017;-77
2022/05/13 00:57:18;;;;;;;7.03;3.17;;;11.60;99.90;;;;;;7399322;19;20018;-77
2022/05/13 00:59:48;;;;;;;8.85;3.30;;;11.90;99.90;;;;;;7398575;19;20024;-77
2022/05/13 01:02:17;;;;;;;4.75;3.00;;;11.90;99.90;;;;;;7394894;19;20078;-78
2022/05/13 01:04:46;;;;;;;7.47;3.03;;;11.70;99.90;;;;;;7399772;19;20082;-77
2022/05/13 01:07:22;;;;;;;9.05;3.17;;;11.80;99.90;;;;;;7395891;19;20454;-77
2022/05/13 01:09:54;;;;;;;5.03;2.90;;;11.80;99.90;;;;;;7397884;19;20078;-77
2022/05/13 01:12:29;;;;;;;11.13;3.08;;;11.70;99.90;;;;;;7398442;19;20442;-77
2022/05/13 01:15:02;;;;;;;8.25;3.45;;;11.70;99.90;;;;;;7399078;19;20007;-77
2022/05/13 01:20:18;;;;;;;9.73;3.75;;;11.80;99.90;;;;;;7399657;19;20025;-77
2022/05/13 01:22:52;;;;;;;8.55;3.17;;;11.90;99.90;;;;;;7396630;19;20347;-77
2022/05/13 01:25:24;;;;;;;7.20;3.35;;;11.70;99.90;;;;;;7397113;19;20031;-77
2022/05/13 01:27:56;;;;;;;10.20;3.53;;;11.80;99.90;;;;;;7395867;19;20032;-77
2022/05/13 01:30:27;;;;;;;12.35;3.35;;;11.70;99.90;;;;;;7397969;19;20018;-77
2022/05/13 01:32:56;;;;;;;8.63;3.40;;;11.70;99.90;;;;;;7395489;19;20339;-77
2022/05/13 01:35:26;;;;;;;9.32;3.40;;;11.70;99.90;;;;;;7400601;19;20023;-76
2022/05/13 01:37:58;;;;;;;8.77;3.42;;;11.70;99.90;;;;;;7397488;19;20043;-76
2022/05/13 01:40:27;;;;;;;8.40;3.45;;;11.70;99.90;;;;;;7398650;19;20385;-76
2022/05/13 01:42:56;;;;;;;5.15;2.90;;;11.70;99.90;;;;;;7398842;19;20018;-75
2022/05/13 01:45:25;;;;;;;8.50;3.30;;;11.60;99.90;;;;;;7395707;19;20006;-75
2022/05/13 01:47:54;;;;;;;7.55;3.45;;;;;;;;;;7392758;19;20058;-75
2022/05/13 01:50:26;;;;;;;6.53;3.28;;;11.70;99.90;;;;;;7394946;19;20031;-76
2022/05/13 01:52:58;;;;;;;11.98;3.50;;;11.70;99.90;;;;;;7399292;19;20014;-77
2022/05/13 01:55:27;;;;;;;5.72;3.35;;;11.70;99.90;;;;;;7397366;19;20085;-77
2022/05/13 01:57:56;;;;;;;8.20;3.15;;;11.70;99.90;;;;;;7398798;19;20340;-77
2022/05/13 02:00:26;;;;;;;9.52;3.30;;;11.80;99.90;;;;;;7397203;19;20011;-76
2022/05/13 02:05:36;;;;;;;8.80;3.60;;;11.90;99.90;;;;;;7395772;19;20015;-77
2022/05/13 02:08:08;;;;;;;9.00;3.72;;;11.90;99.90;;;;;;7395318;19;20134;-75
2022/05/13 02:14:04;;;;;;;7.00;3.60;;;11.90;99.90;;;;;;7398041;19;20018;-90
2022/05/13 02:16:33;;;;;;;11.25;3.45;;;11.90;99.90;;;;;;7403952;19;20046;-89
2022/05/13 02:19:02;;;;;;;11.30;3.47;;;12.00;99.90;;;;;;7196146;19;20015;-89
2022/05/13 02:21:31;;;;;;;10.93;3.88;;;12.00;99.90;;;;;;7400047;19;20033;-87
2022/05/13 02:24:03;;;;;;;7.50;3.33;;;11.90;99.90;;;;;;7224910;19;31504;-87
2022/05/13 02:26:32;;;;;;;9.68;3.88;;;11.90;99.90;;;;;;7397997;19;20039;-87
2022/05/13 02:29:02;;;;;;;9.00;3.10;;;;;;;;;;7401073;19;20011;-88
2022/05/13 02:31:31;;;;;;;7.20;3.42;;;12.00;99.90;;;;;;7403204;19;20018;-87
2022/05/13 02:37:44;;;;;;;9.13;3.08;;;12.00;99.90;;;;;;7396264;19;20494;-87
2022/05/13 02:40:19;;;;;;;8.18;3.58;;;12.00;99.90;;;;;;7387033;19;20021;-89
2022/05/13 02:42:49;;;;;;;10.85;3.22;;;;;;;;;;7364624;19;20411;-89
2022/05/13 02:45:18;;;;;;;9.77;3.28;;;12.00;99.90;;;;;;7391723;19;20351;-87
2022/05/13 02:57:56;;;;;;;8.48;3.70;;;11.80;99.90;;;;;;7393859;19;20026;-86
2022/05/13 03:04:01;;;;;;;12.27;4.18;;;11.70;99.90;;;;;;7350530;19;20022;-86
2022/05/13 03:06:56;;;;;;;7.13;3.55;;;11.60;99.90;;;;;;7404312;19;20504;-86
2022/05/13 03:09:56;;;;;;;5.95;4.00;;;11.60;99.90;;;;;;7406965;19;20026;-86
2022/05/13 03:13:13;;;;;;;11.45;3.72;;;11.30;99.90;;;;;;7405113;19;20017;-85
2022/05/13 03:16:00;;;;;;;7.75;3.97;;;11.50;99.90;;;;;;7397012;19;20031;-86
2022/05/13 03:18:56;;;;;;;13.07;3.90;;;11.50;99.90;;;;;;7395100;19;20021;-86
2022/05/13 03:21:50;;;;;;;7.32;3.63;;;11.40;99.90;;;;;;7401008;19;20529;-85
2022/05/13 03:24:46;;;;;;;9.13;3.70;;;11.50;99.90;;;;;;7401442;19;20007;-85
2022/05/13 03:27:41;;;;;;;7.43;3.90;;;11.60;99.90;;;;;;7398434;19;20380;-85
2022/05/13 03:31:07;;;;;;;9.38;4.32;;;11.50;99.90;;;;;;7399348;19;20017;-85
2022/05/13 03:48:29;;;;;;;13.15;4.15;;;11.60;99.90;;;;;;7396213;19;20006;-89
2022/05/13 03:51:25;;;;;;;12.25;4.03;;;11.60;99.90;;;;;;7395103;19;20359;-89
2022/05/13 03:54:20;;;;;;;9.68;4.38;;;11.70;99.90;;;;;;7415109;19;20010;-89
2022/05/13 03:57:19;;;;;;;12.88;3.78;;;11.70;99.90;;;;;;7418689;19;20021;-89
2022/05/13 04:00:15;;;;;;;9.48;4.13;;;11.50;99.90;;;;;;7401545;19;20021;-89
2022/05/13 04:21:38;;;;;;;;;;;11.80;99.90;;;;;;7364463;19;20046;-85
2022/05/13 04:24:34;;;;;;;10.32;4.10;;;11.60;99.90;;;;;;7400846;19;20355;-85
2022/05/13 04:27:29;;;;;;;8.82;3.95;;;11.60;99.90;;;;;;7400927;19;20048;-85
2022/05/13 04:30:28;;;;;;;9.05;3.92;;;11.70;99.90;;;;;;7397794;19;20358;-86
2022/05/13 04:33:36;;;;;;;13.85;4.30;;;11.70;99.90;;;;;;7396829;19;20019;-84
2022/05/13 04:36:51;;;;;;;12.75;4.18;;;11.70;99.90;;;;;;7395952;19;20018;-85
2022/05/13 04:39:52;;;;;;;10.55;4.20;;;11.70;99.90;;;;;;7397941;19;20092;-85
2022/05/13 04:45:29;;;;;;;13.70;4.20;;;11.80;99.90;;;;;;7397575;19;20007;-84
2022/05/13 04:48:30;;;;;;;11.50;3.22;;;11.80;99.90;;;;;;7404067;19;20041;-85
2022/05/13 04:51:25;;;;;;;7.90;3.95;;;11.80;99.90;;;;;;7400312;19;20007;-84
2022/05/13 04:54:41;;;;;;;13.77;4.22;;;11.80;99.90;;;;;;7406917;19;20381;-84
2022/05/13 04:57:35;;;;;;;14.52;4.18;;;11.80;99.90;;;;;;7398873;19;20048;-84
2022/05/13 05:00:35;;;;;;;11.60;4.35;;;11.70;99.90;;;;;;7406833;19;20010;-84
2022/05/13 05:03:32;;;;;;;12.05;3.55;;;11.90;99.90;;;;;;7401622;19;20011;-85
2022/05/13 05:06:27;;;;;;;9.98;4.10;;;12.00;99.90;;;;;;7409527;19;20007;-84
2022/05/13 05:09:41;;;;;;;13.83;4.17;;;12.00;99.90;;;;;;7402532;19;20021;-85
2022/05/13 05:12:36;;;;;;;13.85;4.18;;;11.80;99.90;;;;;;7404162;19;20014;-85
2022/05/13 05:15:31;;;;;;;12.40;4.03;;;12.40;99.90;;;;;;7410521;19;20081;-84
2022/05/13 05:18:25;;;;;;;12.25;3.88;;;12.00;99.90;;;;;;7405442;19;20014;-86
2022/05/13 05:21:18;;;;;;;14.02;4.40;;;11.90;99.90;;;;;;7398173;19;20045;-84
2022/05/13 05:24:06;;;;;;;13.02;4.30;;;12.00;99.90;;;;;;7397082;19;20010;-85
2022/05/13 05:27:20;;;;;;;15.32;4.38;;;12.00;99.90;;;;;;7398942;19;20011;-85
2022/05/13 05:30:15;;;;;;;12.80;3.80;;;12.00;99.90;;;;;;7398494;19;20018;-85
2022/05/13 05:33:10;;;;;;;12.70;4.13;;;12.00;99.90;;;;;;7400617;19;20022;-85
2022/05/13 05:36:20;;;;;;;10.88;3.50;;;12.20;99.90;;;;;;7398908;19;20021;-84
2022/05/13 05:39:12;;;;;;;;;;;12.10;99.90;;;;;;7404264;19;20489;-85
2022/05/13 05:42:27;;;;;;;10.52;4.50;;;12.20;99.90;;;;;;7401443;19;19982;-85
2022/05/13 05:45:25;;;;;;;19.80;4.20;;;12.40;99.90;;;;;;7401124;19;20018;-84
2022/05/13 05:48:23;;;;;;;9.27;3.55;;;12.40;99.90;;;;;;7400900;19;20090;-85
2022/05/13 05:51:17;;;;;;;11.20;4.13;;;12.40;99.90;;;;;;7401130;19;20490;-84
2022/05/13 06:00:11;;;;;;;11.88;3.35;;;12.60;99.90;;;;;;7396257;19;20014;-85
2022/05/13 06:03:05;;;;;;;16.45;4.55;;;12.70;99.90;;;;;;7399905;19;20025;-85
2022/05/13 06:06:04;;;;;;;12.15;4.00;;;12.80;99.90;;;;;;7398356;19;20023;-84
2022/05/13 06:08:54;;;;;;;10.02;3.60;;;13.10;99.90;;;;;;7397307;19;20038;-84
2022/05/13 06:11:37;;;;;;;11.50;3.20;;;13.00;99.90;;;;;;7401642;19;20015;-85
2022/05/13 06:14:29;;;;;;;11.85;4.22;;;13.10;99.90;;;;;;7401953;19;20347;-85
2022/05/13 06:17:39;;;;;;;15.45;4.13;;;13.20;99.90;;;;;;7398575;19;20011;-85
2022/05/13 06:20:37;;;;;;;11.07;4.47;;;13.20;99.90;;;;;;7395844;19;20018;-85
2022/05/13 06:23:31;;;;;;;11.57;4.13;;;13.30;99.90;;;;;;7399029;19;20034;-85
2022/05/13 06:26:26;;;;;;;11.65;4.25;;;13.40;99.90;;;;;;7400203;19;20022;-85
2022/05/13 06:29:18;;;;;;;9.23;3.37;;;13.50;99.90;;;;;;7397612;19;20109;-85
2022/05/13 06:32:09;;;;;;;10.10;3.85;;;13.50;99.90;;;;;;7399597;19;20354;-85
2022/05/13 06:35:24;;;;;;;12.55;3.70;;;13.60;99.90;;;;;;7404059;19;20073;-85
2022/05/13 06:38:35;;;;;;;9.45;3.83;;;13.50;99.90;;;;;;7407550;19;20055;-84
2022/05/13 06:41:30;;;;;;;14.98;4.13;;;13.50;99.90;;;;;;7409355;19;20010;-85
2022/05/13 06:44:25;;;;;;;16.10;4.18;;;13.40;99.90;;;;;;7403972;19;20014;-85
2022/05/13 06:47:23;;;;;;;10.15;4.05;;;13.50;99.90;;;;;;7406303;19;20034;-85
2022/05/13 06:50:32;;;;;;;12.80;3.60;;;13.50;99.90;;;;;;7404734;19;20010;-85
2022/05/13 06:53:24;;;;;;;10.02;4.00;;;13.50;99.90;;;;;;7407801;19;20007;-84
2022/05/13 06:56:16;;;;;;;12.35;4.40;;;13.60;99.90;;;;;;7409437;19;20015;-86
2022/05/13 06:59:09;;;;;;;9.60;3.35;;;13.60;99.90;;;;;;7407413;19;20021;-85
2022/05/13 07:01:55;;;;;;;16.52;4.28;;;13.70;99.90;;;;;;7406485;19;20018;-85
2022/05/13 07:04:45;;;;;;;10.13;3.53;;;14.00;99.90;;;;;;7405279;19;20010;-90
2022/05/13 07:07:58;;;;;;;22.33;3.63;;;13.90;99.90;;;;;;7403649;19;20374;-87
2022/05/13 07:10:55;;;;;;;13.50;3.70;;;14.00;99.90;;;;;;7402114;19;20002;-84
2022/05/13 07:13:50;;;;;;;12.13;3.92;;;14.00;99.90;;;;;;7403728;19;20378;-84
2022/05/13 07:16:44;;;;;;;13.52;3.50;;;14.20;99.90;;;;;;7404770;19;20011;-84
2022/05/13 07:19:38;;;;;;;8.45;3.92;;;14.10;99.90;;;;;;7401622;19;20011;-85
2022/05/13 07:22:34;;;;;;;8.73;3.00;;;14.10;99.80;;;;;;7402173;19;20070;-84
2022/05/13 07:25:48;;;;;;;10.65;3.28;;;14.20;99.70;;;;;;7403167;19;20090;-85
2022/05/13 07:28:38;;;;;;;12.35;3.40;;;14.00;99.90;;;;;;7399362;19;20010;-84
2022/05/13 07:31:29;;;;;;;7.03;2.58;;;14.00;99.90;;;;;;7403014;19;20051;-84
2022/05/13 07:34:23;;;;;;;8.75;3.08;;;14.10;99.90;;;;;;7403388;19;20074;-85
2022/05/13 07:37:18;;;;;;;10.02;2.85;;;14.20;99.90;;;;;;7402903;19;20025;-84
2022/05/13 07:43:37;;;;;;;7.70;2.85;;;14.50;99.90;;;;;;7404116;19;20014;-85
2022/05/13 07:46:32;;;;;;;10.85;2.70;;;14.70;99.90;;;;;;7398636;19;20443;-84
2022/05/13 07:49:29;;;;;;;4.32;2.55;;;14.50;99.60;;;;;;7397929;19;20389;-84
2022/05/13 07:52:21;;;;;;;;;;;14.60;98.70;;;;;;7403139;19;20010;-84
2022/05/13 07:55:15;;;;;;;7.57;2.50;;;14.50;99.50;;;;;;7399705;19;19929;-84
2022/05/13 07:58:29;;;;;;;11.00;2.80;;;14.50;99.60;;;;;;7401144;19;20021;-85
2022/05/13 08:01:24;;;;;;;6.90;2.78;;;14.40;99.80;;;;;;7401666;19;20011;-85
2022/05/13 08:04:20;;;;;;;7.88;2.75;;;14.50;99.90;;;;;;7400598;19;20015;-85
2022/05/13 08:07:15;;;;;;;8.38;2.63;;;14.50;99.60;;;;;;7398267;19;20094;-85
2022/05/13 08:10:11;;;;;;;6.47;3.03;;;15.00;97.90;;;;;;7403549;19;20051;-85
2022/05/13 08:13:06;;;;;;;9.35;2.67;;;15.00;98.70;;;;;;7402305;19;20010;-85
2022/05/13 08:42:25;;;;;;;5.35;1.73;;;15.10;96.90;;;;;;7359582;19;20893;-91
2022/05/13 08:44:56;;;;;;;6.07;2.05;;;15.00;96.90;;;;;;7396752;19;20451;-84
2022/05/13 08:47:34;;;;;;;3.03;1.58;;;14.90;97.10;;;;;;7401906;19;20018;-89
2022/05/13 08:50:08;;;;;;;5.75;2.08;;;14.90;96.50;;;;;;7389681;19;20031;-88
2022/05/13 08:55:34;;;;;;;4.47;2.00;;;14.80;97.70;;;;;;7403409;19;20027;-94
2022/05/13 08:58:10;;;;;;;5.43;2.33;;;14.80;96.40;;;;;;7388848;19;20026;-90
2022/05/13 09:00:39;;;;;;;;;;;14.90;96.70;;;;;;7401105;19;20018;-86
2022/05/13 09:03:19;;;;;;;6.15;1.63;;;14.80;98.00;;;;;;7405494;19;20303;-89
2022/05/13 09:05:52;;;;;;;5.35;1.90;;;14.50;98.60;;;;;;7401495;19;20014;-88
2022/05/13 09:08:22;;;;;;;10.20;2.20;;;14.30;99.10;;;;;;7402377;19;20018;-93
2022/05/13 09:11:05;;;;;;;4.85;1.85;;;14.30;99.10;;;;;;7424232;19;20013;-91
2022/05/13 09:13:59;;;;;;;6.95;2.30;;;14.60;97.70;;;;;;7413487;19;20039;-95
2022/05/13 09:16:48;;;;;;;5.82;2.10;;;14.90;98.90;;;;;;7409622;19;20463;-93
2022/05/13 09:19:24;;;;;;;5.35;2.20;;;14.90;98.90;;;;;;7405844;19;20410;-84
2022/05/13 09:21:53;;;;;;;6.93;2.15;;;15.10;97.80;;;;;;7391814;19;20870;-86
2022/05/13 10:08:00;;;;;;;5.38;2.65;;;15.60;96.30;;;;;;7407854;19;20010;-91
2022/05/13 10:16:04;;;;;;;3.20;1.83;;;15.60;96.20;;;;;;7399523;19;20035;-89
2022/05/13 10:18:37;;;;;;;7.78;1.58;;;15.40;96.10;;;;;;7396691;19;20015;-86
2022/05/13 10:21:12;;;;;;;3.95;2.13;;;15.60;94.90;;;;;;7398044;19;20078;-88
2022/05/13 10:23:52;;;;;;;3.90;1.77;;;15.50;96.40;;;;;;7392739;19;20082;-89
2022/05/13 10:26:25;;;;;;;5.97;1.90;;;15.40;96.60;;;;;;7396933;19;20039;-89
2022/05/13 10:29:00;;;;;;;5.90;2.00;;;15.30;96.70;;;;;;7396816;19;20127;-88
2022/05/13 10:31:33;;;;;;;10.63;2.55;;;15.60;95.50;;;;;;7395365;19;20018;-91
2022/05/13 10:34:09;;;;;;;6.03;1.60;;;15.50;96.60;;;;;;7397213;19;20010;-88
2022/05/13 10:36:43;;;;;;;6.18;2.22;;;15.40;95.60;;;;;;7400018;19;20035;-89
2022/05/13 10:39:22;;;;;;;4.90;1.80;;;15.30;96.60;;;;;;7398674;19;20015;-88
2022/05/13 10:41:53;;;;;;;4.53;1.83;;;16.00;96.30;;;;;;7407396;19;20109;-89
2022/05/13 11:14:56;;;;;;;5.15;1.60;;;17.40;92.40;;;;;;7424143;19;20733;-61
2022/05/13 11:17:39;;;;;;;5.00;1.50;;;17.50;91.10;;;;;;7425805;19;20033;-61
2022/05/13 11:20:23;;;;;;;5.18;1.90;;;17.30;91.60;;;;;;7426663;19;20011;-61
2022/05/13 11:23:02;;;;;;;5.28;1.58;;;16.90;91.80;;;;;;7429255;19;20042;-61
2022/05/13 11:31:31;;;;;;;2.42;1.33;;;17.30;92.10;;;;;;7413698;19;20803;-82
2022/05/13 11:34:06;;;;;;;5.68;1.85;;;16.80;92.80;;;;;;7420469;19;20022;-85
2022/05/13 11:36:40;;;;;;;;;;;17.20;92.90;;;;;;7416387;19;20014;-82
2022/05/13 11:39:30;;;;;;;2.65;1.35;;;16.00;92.00;;;;;;7419745;19;20376;-83
2022/05/13 11:42:18;;;;;;;4.00;1.80;;;17.30;92.10;;;;;;7410837;19;20444;-84
2022/05/13 11:45:01;;;;;;;3.95;1.70;;;17.00;91.60;;;;;;7405067;19;20021;-82
2022/05/13 11:53:02;;;;;;;4.57;1.63;;;16.70;94.00;;;;;;7430912;19;20299;-93
2022/05/13 11:55:58;;;;;;;4.15;1.80;;;17.40;94.10;;;;;;7435357;19;20119;-92
2022/05/13 11:58:50;;;;;;;3.57;1.57;;;16.90;92.10;;;;;;7410783;19;20015;-94
2022/05/13 12:01:49;;;;;;;2.70;1.50;;;17.00;91.80;;;;;;7408797;19;20014;-92
2022/05/13 12:04:37;;;;;;;3.13;1.42;;;17.00;91.40;;;;;;7406852;19;20533;-92
2022/05/13 12:07:34;;;;;;;5.13;1.42;;;17.00;93.30;;;;;;7419025;19;20082;-90
2022/05/13 12:10:13;;;;;;;4.43;1.63;;;15.60;91.70;;;;;;7411770;19;20046;-94
2022/05/13 12:12:56;;;;;;;5.70;2.10;;;16.80;92.30;;;;;;7411173;19;20014;-92
2022/05/13 12:15:50;;;;;;;4.72;1.20;;;17.30;92.50;;;;;;7409828;19;20025;-93
2022/05/13 12:18:28;;;;;;;7.82;1.40;;;17.30;91.30;;;;;;7415569;19;20010;-92
2022/05/13 12:21:13;;;;;;;7.05;1.63;;;16.90;92.80;;;;;;7426267;19;20014;-93
2022/05/13 12:23:51;;;;;;;4.53;1.50;;;17.00;91.80;;;;;;7421410;19;20086;-92
2022/05/13 12:26:51;;;;;;;4.40;1.52;;;17.00;92.20;;;;;;7408557;19;20046;-92
2022/05/13 12:29:41;;;;;;;3.30;1.50;;;16.90;91.90;;;;;;7411329;19;20046;-93
2022/05/13 12:32:24;;;;;;;7.18;2.25;;;16.90;92.20;;;;;;7409507;19;20014;-93
2022/05/13 12:38:09;;;;;;;5.15;1.70;;;17.20;93.20;;;;;;7407155;19;20017;-95
2022/05/13 12:40:56;;;;;;;3.30;2.40;;;17.00;93.00;;;;;;7416689;19;20010;-95
2022/05/13 12:44:14;;;;;;;5.63;2.05;;;16.80;92.70;;;;;;7413902;19;20014;-89
2022/05/13 12:46:46;;;;;;;5.00;2.28;;;17.00;93.10;;;;;;7408093;19;20007;-91
2022/05/13 12:49:23;;;;;;;8.52;2.63;;;17.20;91.70;;;;;;7411571;19;20014;-92
2022/05/13 12:52:04;;;;;;;4.32;1.95;;;17.40;91.50;;;;;;7408421;19;20038;-96
2022/05/13 12:54:51;;;;;;;7.13;2.22;;;17.70;91.60;;;;;;7412851;19;20477;-96
2022/05/13 13:00:25;;;;;;;4.45;1.70;;;17.70;91.20;;;;;;7415494;19;20031;-95
2022/05/13 13:03:03;;;;;;;5.05;2.08;;;17.90;91.20;;;;;;7411393;19;20007;-95
2022/05/13 13:05:35;;;;;;;6.05;2.33;;;18.20;90.90;;;;;;7415887;19;20014;-93
2022/05/13 13:08:19;;;;;;;3.88;1.63;;;17.50;90.30;;;;;;7426045;19;20019;-93
2022/05/13 13:10:53;;;;;;;5.10;1.75;;;17.60;90.30;;;;;;7416570;19;20018;-95
2022/05/13 13:13:33;;;;;;;4.25;1.83;;;17.80;91.00;;;;;;7424829;19;20018;-95
2022/05/13 13:16:23;;;;;;;2.95;1.45;;;17.70;89.80;;;;;;7425947;19;20020;-95
2022/05/13 13:19:09;;;;;;;4.22;1.55;;;17.80;87.70;;;;;;7405509;19;20017;-90
2022/05/13 13:21:39;;;;;;;5.50;1.70;;;17.60;89.50;;;;;;7405885;19;20070;-94
2022/05/13 13:24:18;;;;;;;5.75;2.08;;;17.40;90.30;;;;;;7407437;19;20017;-96
2022/05/13 13:29:40;;;;;;;4.88;1.98;;;17.80;89.10;;;;;;7416627;19;20018;-96
2022/05/13 13:32:47;;;;;;;8.57;1.73;;;18.30;87.40;;;;;;7417368;19;20030;-94
2022/05/13 13:35:16;;;;;;;6.80;1.70;;;18.00;87.70;;;;;;7408641;19;20113;-96
2022/05/13 13:37:45;;;;;;;4.15;1.63;;;18.00;88.10;;;;;;7409388;19;20026;-93
2022/05/13 13:40:19;;;;;;;5.70;1.45;;;18.10;87.40;;;;;;7407409;19;20022;-94
2022/05/13 13:42:48;;;;;;;5.63;1.65;;;18.10;86.50;;;;;;7408783;19;20629;-92
2022/05/13 13:45:24;;;;;;;7.32;2.30;;;18.90;84.10;;;;;;7415428;19;20113;-95
2022/05/13 13:48:00;;;;;;;5.18;1.80;;;18.50;84.30;;;;;;7416939;19;20011;-94
2022/05/13 13:50:33;;;;;;;5.90;1.95;;;18.90;85.70;;;;;;7403445;19;20041;-95
2022/05/13 13:53:02;;;;;;;4.63;1.67;;;18.70;83.20;;;;;;7400755;19;20015;-95
2022/05/13 13:55:35;;;;;;;4.13;1.83;;;18.40;84.50;;;;;;7402740;19;20021;-95
2022/05/13 13:58:25;;;;;;;5.03;2.25;;;18.20;85.40;;;;;;7405823;19;20098;-94
2022/05/13 14:00:55;;;;;;;3.80;2.08;;;19.00;83.50;;;;;;7402850;19;20007;-94
2022/05/13 14:03:29;;;;;;;8.25;2.85;;;19.40;83.30;;;;;;7401362;19;20027;-93
2022/05/13 14:06:02;;;;;;;7.85;2.30;;;19.80;83.80;;;;;;7402614;19;20015;-94
2022/05/13 14:08:33;;;;;;;10.80;2.05;;;19.90;81.60;;;;;;7404540;19;20031;-94
2022/05/13 14:11:06;;;;;;;6.55;2.78;;;19.80;82.60;;;;;;7407142;19;20006;-94
2022/05/13 14:13:41;;;;;;;8.45;2.25;;;20.90;81.20;;;;;;7408775;19;20007;-95
2022/05/13 14:16:15;;;;;;;5.68;2.05;;;19.90;81.10;;;;;;7404773;19;20017;-94
2022/05/13 14:18:49;;;;;;;6.85;1.83;;;19.20;83.50;;;;;;7398316;19;20014;-95
2022/05/13 14:21:30;;;;;;;7.00;1.98;;;19.70;84.20;;;;;;7401220;19;20077;-94
2022/05/13 14:24:01;;;;;;;5.82;1.95;;;19.10;82.50;;;;;;7404139;19;20007;-94
2022/05/13 14:26:31;;;;;;;8.13;2.30;;;18.70;84.80;;;;;;7403022;19;19994;-94
2022/05/13 14:29:02;;;;;;;6.22;2.10;;;18.30;86.60;;;;;;7403684;19;20029;-95
2022/05/13 14:31:39;;;;;;;5.93;2.22;;;18.40;86.00;;;;;;7400281;19;20014;-95
2022/05/13 14:34:19;;;;;;;4.95;2.53;;;18.20;87.30;;;;;;7417977;19;20038;-93
2022/05/13 14:36:56;;;;;;;6.22;2.00;;;19.10;85.80;;;;;;7420607;19;20011;-94
2022/05/13 14:42:16;;;;;;;7.43;2.20;;;19.00;84.00;;;;;;7408242;19;20014;-94
2022/05/13 14:44:48;;;;;;;6.68;2.28;;;18.30;86.10;;;;;;7403898;19;20007;-95
2022/05/13 14:47:23;;;;;;;10.90;2.67;;;18.10;87.10;;;;;;7406640;19;20007;-94
2022/05/13 14:49:57;;;;;;;5.90;2.10;;;18.20;88.50;;;;;;7408925;19;20024;-93
2022/05/13 14:52:29;;;;;;;6.05;2.20;;;19.00;86.70;;;;;;7403137;19;20018;-94
2022/05/13 14:55:00;;;;;;;8.00;2.33;;;18.80;86.20;;;;;;7401378;19;20014;-95
2022/05/13 14:57:44;;;;;;;9.38;2.92;;;18.20;87.80;;;;;;7401430;19;20010;-94
2022/05/13 15:00:18;;;;;;;6.05;2.55;;;18.50;88.10;;;;;;7397852;19;20474;-94
2022/05/13 15:03:01;;;;;;;5.72;2.08;;;18.00;88.70;;;;;;7402446;19;20003;-95
2022/05/13 15:05:40;;;;;;;9.10;2.85;;;17.80;90.30;;;;;;7403224;19;20006;-94
2022/05/13 15:08:40;;;;;;;7.05;2.40;;;18.30;90.10;;;;;;7409276;19;20396;-94
2022/05/13 15:11:11;;;;;;;9.75;2.78;;;18.40;88.30;;;;;;7405776;19;20017;-94
2022/05/13 15:13:40;;;;;;;8.75;2.67;;;17.80;89.70;;;;;;7406843;19;20007;-95
2022/05/13 15:16:09;;;;;;;7.82;2.45;;;17.60;90.30;;;;;;7412977;19;20034;-93
2022/05/13 15:18:41;;;;;;;6.88;2.72;;;17.50;90.50;;;;;;7415996;19;20032;-95
2022/05/13 15:21:14;;;;;;;8.02;2.63;;;18.70;90.40;;;;;;7411632;19;20050;-94
2022/05/13 15:23:44;;;;;;;8.60;2.28;;;19.80;87.80;;;;;;7407298;19;20032;-95
2022/05/13 15:26:16;;;;;;;4.30;1.65;;;19.70;87.10;;;;;;7402057;19;20007;-94
2022/05/13 15:28:46;;;;;;;9.90;2.38;;;18.60;86.80;;;;;;7401927;19;20028;-94
2022/05/13 15:31:18;;;;;;;8.50;2.53;;;18.00;89.30;;;;;;7405127;19;20017;-92
2022/05/13 15:33:47;;;;;;;10.70;2.55;;;17.90;89.80;;;;;;7408491;19;20012;-93
2022/05/13 15:36:23;;;;;;;5.82;2.05;;;18.70;89.60;;;;;;7417797;19;20013;-93
2022/05/13 15:38:56;;;;;;;9.93;2.85;;;18.80;90.20;;;;;;7424701;19;20481;-95
2022/05/13 15:41:25;;;;;;;8.90;2.22;;;19.20;87.70;;;;;;7422125;19;20094;-95
2022/05/13 15:43:55;;;;;;;7.35;2.47;;;18.30;88.80;;;;;;7415661;19;20023;-95
2022/05/13 15:46:28;;;;;;;9.73;2.63;;;17.80;90.20;;;;;;7416433;19;20006;-94
2022/05/13 15:52:40;;;;;;;6.00;2.65;;;17.60;91.60;;;;;;7416728;19;20010;-94
2022/05/13 15:54:32;;;;;;;4.20;1.67;;;17.50;91.10;;;;;;7405825;19;20033;-94
2022/05/13 15:57:03;;;;;;;6.15;2.33;;;18.10;92.20;;;;;;7409374;19;20706;-93
2022/05/13 15:59:34;;;;;;;7.57;2.67;;;18.20;90.70;;;;;;7410913;19;20041;-93
2022/05/13 16:02:05;;;;;;;9.07;2.30;;;18.60;89.80;;;;;;7407021;19;20014;-93
2022/05/13 16:04:35;;;;;;;6.15;2.35;;;18.30;89.70;;;;;;7409619;19;20054;-95
2022/05/13 16:07:08;;;;;;;8.88;2.63;;;19.10;89.10;;;;;;7408104;19;20032;-94
2022/05/13 16:09:37;;;;;;;9.05;2.08;;;18.80;89.10;;;;;;7412506;19;20017;-94
2022/05/13 16:12:07;;;;;;;6.47;2.17;;;19.60;85.80;;;;;;7407965;19;20554;-95
2022/05/13 16:14:36;;;;;;;6.18;2.00;;;19.00;85.30;;;;;;7409869;19;20017;-93
2022/05/13 16:17:12;;;;;;;8.27;2.33;;;17.90;87.00;;;;;;7406452;19;20417;-94
2022/05/13 16:19:43;;;;;;;5.15;2.00;;;17.60;89.30;;;;;;7404688;19;20074;-95
2022/05/13 16:22:18;;;;;;;8.25;2.60;;;17.10;90.50;;;;;;7411994;19;20023;-92
2022/05/13 16:24:54;;;;;;;8.93;2.40;;;17.50;90.80;;;;;;7407197;19;20070;-93
2022/05/13 16:27:27;;;;;;;8.00;2.20;;;18.50;89.00;;;;;;7406382;19;20007;-94
2022/05/13 16:29:57;;;;;;;5.88;2.20;;;19.40;84.70;;;;;;7410723;19;20018;-94
2022/05/13 16:32:26;;;;;;;5.97;2.50;;;18.70;85.90;;;;;;7416843;19;20446;-95
2022/05/13 16:34:55;;;;;;;6.95;2.70;;;18.10;87.00;;;;;;7419446;19;20010;-94
2022/05/13 16:40:11;;;;;;;10.32;2.58;;;17.80;88.50;;;;;;7417043;19;20007;-94
2022/05/13 16:42:40;;;;;;;9.40;2.50;;;17.60;91.70;;;;;;7416261;19;20014;-95
2022/05/13 16:45:10;;;;;;;3.20;1.98;;;17.60;90.20;;;;;;7416907;19;20015;-93
2022/05/13 16:47:39;;;;;;;8.23;2.50;;;16.90;91.70;;;;;;7416333;19;20019;-95
2022/05/13 16:50:16;;;;;;;7.85;2.47;;;17.30;92.00;;;;;;7411896;19;19998;-95
2022/05/13 16:52:48;;;;;;;6.78;2.50;;;17.40;91.70;;;;;;7416325;19;20015;-94
2022/05/13 16:55:18;;;;;;;7.10;2.47;;;17.50;90.40;;;;;;7418209;19;20035;-93
2022/05/13 16:57:48;;;;;;;9.35;2.58;;;17.50;90.50;;;;;;7416076;19;20011;-94
2022/05/13 17:00:20;;;;;;;8.10;2.30;;;17.90;91.20;;;;;;7415423;19;20006;-93
2022/05/13 17:02:54;;;;;;;10.00;2.80;;;18.50;89.70;;;;;;7415033;19;20010;-93
2022/05/13 17:05:26;;;;;;;5.10;2.10;;;18.70;87.80;;;;;;7413436;19;20022;-95
2022/05/13 17:07:58;;;;;;;8.23;2.92;;;18.80;86.60;;;;;;7412208;19;20014;-95
2022/05/13 17:21:14;;;;;;;6.95;2.30;;;18.50;87.10;;;;;;7412695;19;20044;-95
2022/05/13 17:23:45;;;;;;;4.68;2.08;;;18.20;88.30;;;;;;7407714;19;19998;-94
2022/05/13 17:26:15;;;;;;;9.32;2.88;;;18.40;88.10;;;;;;7410962;19;20014;-95
2022/05/13 17:28:44;;;;;;;7.78;2.63;;;18.50;87.70;;;;;;7412301;19;20014;-95
2022/05/13 17:31:15;;;;;;;9.90;2.90;;;16.50;86.20;;;;;;7413397;19;20011;-95
2022/05/13 17:33:45;;;;;;;7.40;2.40;;;19.60;86.90;;;;;;7413045;19;20031;-96
2022/05/13 17:36:15;;;;;;;6.72;2.60;;;18.00;88.60;;;;;;7412791;19;20478;-95
2022/05/13 17:38:47;;;;;;;7.68;2.47;;;17.20;91.70;;;;;;7416778;19;20060;-95
2022/05/13 17:41:16;;;;;;;7.03;2.53;;;17.20;90.30;;;;;;7413637;19;20015;-94
2022/05/13 17:43:45;;;;;;;10.43;2.60;;;16.80;90.90;;;;;;7414162;19;20014;-94